sensor_id;sensor_type;location;lat;lon;timestamp;pressure;altitude;pressure_sealevel;temperature;humidity
73558;BME280;61829;53.286;10.434;2023-08-21T00:01:19;101979.88;;;19.45;85.13
73558;BME280;61829;53.286;10.434;2023-08-21T00:03:45;101973.16;;;19.41;85.40
73558;BME280;61829;53.286;10.434;2023-08-21T00:06:11;101971.06;;;19.36;85.86
73558;BME280;61829;53.286;10.434;2023-08-21T00:08:37;101977.81;;;19.34;85.49
73558;BME280;61829;53.286;10.434;2023-08-21T00:11:03;101978.25;;;19.31;85.71
73558;BME280;61829;53.286;10.434;2023-08-21T00:13:29;101977.81;;;19.27;85.77
73558;BME280;61829;53.286;10.434;2023-08-21T00:15:56;101971.94;;;19.23;86.77
73558;BME280;61829;53.286;10.434;2023-08-21T00:18:22;101982.47;;;19.20;86.63
73558;BME280;61829;53.286;10.434;2023-08-21T00:20:48;101981.44;;;19.14;86.16
73558;BME280;61829;53.286;10.434;2023-08-21T00:23:14;101977.44;;;19.10;87.04
73558;BME280;61829;53.286;10.434;2023-08-21T00:25:45;101978.69;;;19.07;86.83
73558;BME280;61829;53.286;10.434;2023-08-21T00:28:11;101979.13;;;19.04;86.28
73558;BME280;61829;53.286;10.434;2023-08-21T00:30:37;101978.91;;;18.99;86.95
73558;BME280;61829;53.286;10.434;2023-08-21T00:33:03;101972.84;;;18.97;85.99
73558;BME280;61829;53.286;10.434;2023-08-21T00:35:30;101980.41;;;18.95;85.91
73558;BME280;61829;53.286;10.434;2023-08-21T00:37:56;101989.22;;;18.91;86.56
73558;BME280;61829;53.286;10.434;2023-08-21T00:40:22;101976.22;;;18.86;86.08
73558;BME280;61829;53.286;10.434;2023-08-21T00:42:48;101975.81;;;18.82;86.48
73558;BME280;61829;53.286;10.434;2023-08-21T00:45:14;101971.81;;;18.78;86.31
73558;BME280;61829;53.286;10.434;2023-08-21T00:47:41;101970.56;;;18.74;86.78
73558;BME280;61829;53.286;10.434;2023-08-21T00:50:07;101970.31;;;18.69;87.22
73558;BME280;61829;53.286;10.434;2023-08-21T00:52:35;101970.13;;;18.64;87.42
73558;BME280;61829;53.286;10.434;2023-08-21T00:55:02;101974.34;;;18.60;87.80
73558;BME280;61829;53.286;10.434;2023-08-21T00:57:29;101970.13;;;18.57;87.67
73558;BME280;61829;53.286;10.434;2023-08-21T00:59:55;101961.91;;;18.51;88.05
73558;BME280;61829;53.286;10.434;2023-08-21T01:02:21;101962.56;;;18.46;88.11
73558;BME280;61829;53.286;10.434;2023-08-21T01:04:47;101955.63;;;18.44;87.45
73558;BME280;61829;53.286;10.434;2023-08-21T01:07:13;101960.44;;;18.42;88.80
73558;BME280;61829;53.286;10.434;2023-08-21T01:09:45;101962.53;;;18.39;88.26
73558;BME280;61829;53.286;10.434;2023-08-21T01:12:23;101962.13;;;18.36;88.46
73558;BME280;61829;53.286;10.434;2023-08-21T01:14:59;101961.72;;;18.32;88.40
73558;BME280;61829;53.286;10.434;2023-08-21T01:17:25;101954.97;;;18.28;88.64
73558;BME280;61829;53.286;10.434;2023-08-21T01:19:52;101957.50;;;18.23;88.68
73558;BME280;61829;53.286;10.434;2023-08-21T01:22:18;101952.66;;;18.18;88.98
73558;BME280;61829;53.286;10.434;2023-08-21T01:24:45;101956.66;;;18.16;88.69
73558;BME280;61829;53.286;10.434;2023-08-21T01:27:12;101956.00;;;18.14;88.68
73558;BME280;61829;53.286;10.434;2023-08-21T01:29:40;101964.00;;;18.09;89.62
73558;BME280;61829;53.286;10.434;2023-08-21T01:34:48;101958.09;;;17.99;89.53
73558;BME280;61829;53.286;10.434;2023-08-21T01:37:17;101956.81;;;17.94;89.88
73558;BME280;61829;53.286;10.434;2023-08-21T01:39:43;101964.56;;;17.91;89.88
73558;BME280;61829;53.286;10.434;2023-08-21T01:42:09;101963.09;;;17.88;89.88
73558;BME280;61829;53.286;10.434;2023-08-21T01:44:36;101967.28;;;17.84;90.30
73558;BME280;61829;53.286;10.434;2023-08-21T01:47:02;101972.31;;;17.81;90.33
73558;BME280;61829;53.286;10.434;2023-08-21T01:49:28;101966.22;;;17.79;90.24
73558;BME280;61829;53.286;10.434;2023-08-21T01:51:54;101974.06;;;18.15;87.84
73558;BME280;61829;53.286;10.434;2023-08-21T01:54:20;101961.03;;;18.10;87.39
73558;BME280;61829;53.286;10.434;2023-08-21T01:56:45;101961.28;;;18.35;86.55
73558;BME280;61829;53.286;10.434;2023-08-21T01:59:12;101966.78;;;18.49;86.26
73558;BME280;61829;53.286;10.434;2023-08-21T02:01:38;101969.66;;;18.14;87.93
73558;BME280;61829;53.286;10.434;2023-08-21T02:04:04;101963.00;;;18.43;85.63
73558;BME280;61829;53.286;10.434;2023-08-21T02:06:30;101970.72;;;18.39;85.94
73558;BME280;61829;53.286;10.434;2023-08-21T02:08:56;101980.75;;;17.92;88.47
73558;BME280;61829;53.286;10.434;2023-08-21T02:11:22;101964.97;;;17.81;88.36
73558;BME280;61829;53.286;10.434;2023-08-21T02:13:48;101973.72;;;17.77;88.46
73558;BME280;61829;53.286;10.434;2023-08-21T02:16:14;101968.50;;;17.75;89.31
73558;BME280;61829;53.286;10.434;2023-08-21T02:18:40;101970.56;;;17.73;88.81
73558;BME280;61829;53.286;10.434;2023-08-21T02:21:06;101969.75;;;17.72;88.60
73558;BME280;61829;53.286;10.434;2023-08-21T02:23:32;101970.75;;;17.65;88.98
73558;BME280;61829;53.286;10.434;2023-08-21T02:25:58;101959.66;;;17.66;89.07
73558;BME280;61829;53.286;10.434;2023-08-21T02:28:24;101972.56;;;17.51;89.95
73558;BME280;61829;53.286;10.434;2023-08-21T02:30:50;101968.34;;;17.42;90.74
73558;BME280;61829;53.286;10.434;2023-08-21T02:33:16;101966.47;;;17.42;90.90
73558;BME280;61829;53.286;10.434;2023-08-21T02:35:42;101964.97;;;17.40;90.74
73558;BME280;61829;53.286;10.434;2023-08-21T02:38:08;101970.00;;;17.36;91.45
73558;BME280;61829;53.286;10.434;2023-08-21T02:40:34;101968.59;;;17.47;91.30
73558;BME280;61829;53.286;10.434;2023-08-21T02:43:00;101970.06;;;17.49;90.62
73558;BME280;61829;53.286;10.434;2023-08-21T02:45:26;101964.63;;;17.49;90.73
73558;BME280;61829;53.286;10.434;2023-08-21T02:47:52;101971.09;;;17.48;91.13
73558;BME280;61829;53.286;10.434;2023-08-21T02:50:18;101976.75;;;17.47;91.02
73558;BME280;61829;53.286;10.434;2023-08-21T02:52:45;101970.44;;;17.46;91.39
73558;BME280;61829;53.286;10.434;2023-08-21T02:55:10;101973.38;;;17.45;91.35
73558;BME280;61829;53.286;10.434;2023-08-21T02:57:36;101974.81;;;17.41;91.47
73558;BME280;61829;53.286;10.434;2023-08-21T03:00:03;101982.16;;;17.40;90.92
73558;BME280;61829;53.286;10.434;2023-08-21T03:02:30;101985.28;;;17.37;91.18
73558;BME280;61829;53.286;10.434;2023-08-21T03:04:55;101982.97;;;17.34;91.39
73558;BME280;61829;53.286;10.434;2023-08-21T03:07:22;101985.91;;;17.33;90.97
73558;BME280;61829;53.286;10.434;2023-08-21T03:09:48;101986.94;;;17.32;90.93
73558;BME280;61829;53.286;10.434;2023-08-21T03:12:14;101989.66;;;17.32;90.47
73558;BME280;61829;53.286;10.434;2023-08-21T03:14:40;101989.03;;;17.30;90.71
73558;BME280;61829;53.286;10.434;2023-08-21T03:17:07;101994.50;;;17.30;91.33
73558;BME280;61829;53.286;10.434;2023-08-21T03:19:33;101993.00;;;17.27;91.52
73558;BME280;61829;53.286;10.434;2023-08-21T03:21:59;101994.88;;;17.26;91.11
73558;BME280;61829;53.286;10.434;2023-08-21T03:24:25;101993.59;;;17.22;92.34
73558;BME280;61829;53.286;10.434;2023-08-21T03:26:51;101998.41;;;17.20;92.14
73558;BME280;61829;53.286;10.434;2023-08-21T03:29:17;101995.06;;;17.18;93.14
73558;BME280;61829;53.286;10.434;2023-08-21T03:31:47;101994.19;;;17.18;93.01
73558;BME280;61829;53.286;10.434;2023-08-21T03:34:13;101992.69;;;17.15;93.17
73558;BME280;61829;53.286;10.434;2023-08-21T03:36:39;102002.13;;;17.13;93.74
73558;BME280;61829;53.286;10.434;2023-08-21T03:39:05;101999.59;;;17.11;93.80
73558;BME280;61829;53.286;10.434;2023-08-21T03:41:32;101990.78;;;17.09;93.99
73558;BME280;61829;53.286;10.434;2023-08-21T03:43:58;101994.75;;;17.06;94.03
73558;BME280;61829;53.286;10.434;2023-08-21T03:46:24;101990.34;;;17.05;93.59
73558;BME280;61829;53.286;10.434;2023-08-21T03:48:51;101987.63;;;17.05;93.90
73558;BME280;61829;53.286;10.434;2023-08-21T03:51:18;101991.59;;;17.03;94.25
73558;BME280;61829;53.286;10.434;2023-08-21T03:53:44;101992.88;;;17.07;94.04
73558;BME280;61829;53.286;10.434;2023-08-21T03:56:10;101984.06;;;17.05;93.89
73558;BME280;61829;53.286;10.434;2023-08-21T03:58:36;101992.22;;;17.05;94.38
73558;BME280;61829;53.286;10.434;2023-08-21T04:01:02;101988.69;;;17.04;94.24
73558;BME280;61829;53.286;10.434;2023-08-21T04:03:28;101993.06;;;17.05;94.49
73558;BME280;61829;53.286;10.434;2023-08-21T04:05:54;101989.91;;;17.02;93.95
73558;BME280;61829;53.286;10.434;2023-08-21T04:08:22;101995.28;;;16.95;94.70
73558;BME280;61829;53.286;10.434;2023-08-21T04:10:48;102000.34;;;16.98;95.33
73558;BME280;61829;53.286;10.434;2023-08-21T04:13:14;101997.00;;;16.96;94.96
73558;BME280;61829;53.286;10.434;2023-08-21T04:15:44;101998.19;;;16.87;94.97
73558;BME280;61829;53.286;10.434;2023-08-21T04:18:10;101998.03;;;16.74;95.75
73558;BME280;61829;53.286;10.434;2023-08-21T04:20:37;102010.16;;;16.71;96.51
73558;BME280;61829;53.286;10.434;2023-08-21T04:23:03;102005.38;;;16.73;96.47
73558;BME280;61829;53.286;10.434;2023-08-21T04:25:29;102009.34;;;16.71;96.62
73558;BME280;61829;53.286;10.434;2023-08-21T04:27:55;102006.38;;;16.87;95.66
73558;BME280;61829;53.286;10.434;2023-08-21T04:30:21;102012.50;;;16.96;95.29
73558;BME280;61829;53.286;10.434;2023-08-21T04:32:48;102005.28;;;16.81;95.99
73558;BME280;61829;53.286;10.434;2023-08-21T04:35:14;102001.06;;;16.79;96.56
73558;BME280;61829;53.286;10.434;2023-08-21T04:37:47;102002.72;;;16.80;96.67
73558;BME280;61829;53.286;10.434;2023-08-21T04:40:14;102008.19;;;16.80;96.61
73558;BME280;61829;53.286;10.434;2023-08-21T04:42:40;102011.56;;;16.82;97.17
73558;BME280;61829;53.286;10.434;2023-08-21T04:45:07;102005.72;;;16.85;97.15
73558;BME280;61829;53.286;10.434;2023-08-21T04:47:33;102003.41;;;16.89;97.60
73558;BME280;61829;53.286;10.434;2023-08-21T04:49:59;102013.53;;;16.95;97.33
73558;BME280;61829;53.286;10.434;2023-08-21T04:52:25;102015.00;;;16.97;96.91
73558;BME280;61829;53.286;10.434;2023-08-21T04:54:52;102020.72;;;17.02;97.13
73558;BME280;61829;53.286;10.434;2023-08-21T04:57:18;102011.31;;;17.05;96.79
73558;BME280;61829;53.286;10.434;2023-08-21T04:59:44;102018.84;;;17.10;96.91
73558;BME280;61829;53.286;10.434;2023-08-21T05:02:10;102015.53;;;17.14;96.70
73558;BME280;61829;53.286;10.434;2023-08-21T05:04:37;102021.28;;;17.26;96.23
73558;BME280;61829;53.286;10.434;2023-08-21T05:07:04;102016.59;;;17.55;96.03
73558;BME280;61829;53.286;10.434;2023-08-21T05:09:31;102026.69;;;17.95;94.00
73558;BME280;61829;53.286;10.434;2023-08-21T05:11:57;102024.72;;;18.37;92.31
73558;BME280;61829;53.286;10.434;2023-08-21T05:14:24;102022.44;;;18.81;89.41
73558;BME280;61829;53.286;10.434;2023-08-21T05:16:50;102026.41;;;19.25;87.07
73558;BME280;61829;53.286;10.434;2023-08-21T05:19:16;102028.41;;;19.69;84.87
73558;BME280;61829;53.286;10.434;2023-08-21T05:21:43;102032.66;;;20.10;82.46
73558;BME280;61829;53.286;10.434;2023-08-21T05:24:10;102034.06;;;20.51;80.33
73558;BME280;61829;53.286;10.434;2023-08-21T05:26:37;102029.38;;;20.90;78.65
73558;BME280;61829;53.286;10.434;2023-08-21T05:29:03;102031.34;;;21.26;76.77
73558;BME280;61829;53.286;10.434;2023-08-21T05:31:29;102037.09;;;21.62;74.55
73558;BME280;61829;53.286;10.434;2023-08-21T05:33:55;102028.81;;;21.98;73.39
73558;BME280;61829;53.286;10.434;2023-08-21T05:36:21;102032.25;;;22.42;71.42
73558;BME280;61829;53.286;10.434;2023-08-21T05:38:48;102036.63;;;22.85;69.33
73558;BME280;61829;53.286;10.434;2023-08-21T05:41:17;102031.53;;;23.24;67.93
73558;BME280;61829;53.286;10.434;2023-08-21T05:43:43;102027.97;;;23.64;66.02
73558;BME280;61829;53.286;10.434;2023-08-21T05:46:11;102034.66;;;24.09;64.71
73558;BME280;61829;53.286;10.434;2023-08-21T05:48:37;102039.06;;;24.50;62.70
73558;BME280;61829;53.286;10.434;2023-08-21T05:51:03;102028.28;;;24.82;61.37
73558;BME280;61829;53.286;10.434;2023-08-21T05:53:31;102035.09;;;25.14;59.65
73558;BME280;61829;53.286;10.434;2023-08-21T05:55:57;102036.16;;;25.46;58.48
73558;BME280;61829;53.286;10.434;2023-08-21T05:58:23;102042.22;;;25.87;57.88
73558;BME280;61829;53.286;10.434;2023-08-21T06:00:49;102046.56;;;26.27;56.44
73558;BME280;61829;53.286;10.434;2023-08-21T06:03:15;102037.28;;;26.71;54.80
73558;BME280;61829;53.286;10.434;2023-08-21T06:05:41;102040.75;;;26.88;53.44
73558;BME280;61829;53.286;10.434;2023-08-21T06:08:09;102046.97;;;27.05;53.20
73558;BME280;61829;53.286;10.434;2023-08-21T06:10:35;102042.88;;;27.13;52.61
73558;BME280;61829;53.286;10.434;2023-08-21T06:13:02;102043.00;;;27.34;52.48
73558;BME280;61829;53.286;10.434;2023-08-21T06:15:27;102051.69;;;27.52;51.94
73558;BME280;61829;53.286;10.434;2023-08-21T06:17:54;102047.66;;;27.75;51.41
73558;BME280;61829;53.286;10.434;2023-08-21T06:20:20;102050.81;;;28.05;50.42
73558;BME280;61829;53.286;10.434;2023-08-21T06:22:46;102041.72;;;28.30;49.89
73558;BME280;61829;53.286;10.434;2023-08-21T06:25:12;102039.28;;;28.43;49.71
73558;BME280;61829;53.286;10.434;2023-08-21T06:27:40;102047.31;;;28.50;49.65
73558;BME280;61829;53.286;10.434;2023-08-21T06:30:06;102047.91;;;28.62;48.94
73558;BME280;61829;53.286;10.434;2023-08-21T06:32:32;102059.00;;;28.83;48.01
73558;BME280;61829;53.286;10.434;2023-08-21T06:34:58;102056.78;;;29.11;47.75
73558;BME280;61829;53.286;10.434;2023-08-21T06:37:26;102055.66;;;29.22;46.99
73558;BME280;61829;53.286;10.434;2023-08-21T06:39:52;102050.31;;;29.41;46.45
73558;BME280;61829;53.286;10.434;2023-08-21T06:42:18;102057.78;;;29.56;46.24
73558;BME280;61829;53.286;10.434;2023-08-21T06:44:44;102050.22;;;29.76;45.38
73558;BME280;61829;53.286;10.434;2023-08-21T06:47:10;102048.69;;;29.99;45.01
73558;BME280;61829;53.286;10.434;2023-08-21T06:49:36;102058.53;;;30.31;43.98
73558;BME280;61829;53.286;10.434;2023-08-21T06:52:05;102065.41;;;30.44;44.24
73558;BME280;61829;53.286;10.434;2023-08-21T06:54:31;102058.50;;;30.36;43.64
73558;BME280;61829;53.286;10.434;2023-08-21T06:56:57;102061.44;;;30.11;44.39
73558;BME280;61829;53.286;10.434;2023-08-21T06:59:24;102063.78;;;29.88;44.84
73558;BME280;61829;53.286;10.434;2023-08-21T07:01:50;102064.19;;;29.41;44.96
73558;BME280;61829;53.286;10.434;2023-08-21T07:04:17;102069.78;;;29.36;46.12
73558;BME280;61829;53.286;10.434;2023-08-21T07:06:43;102067.75;;;29.62;45.45
73558;BME280;61829;53.286;10.434;2023-08-21T07:09:10;102076.91;;;29.72;45.18
73558;BME280;61829;53.286;10.434;2023-08-21T07:11:36;102073.31;;;29.57;45.13
73558;BME280;61829;53.286;10.434;2023-08-21T07:14:02;102072.81;;;29.44;45.92
73558;BME280;61829;53.286;10.434;2023-08-21T07:16:30;102066.75;;;29.22;45.37
73558;BME280;61829;53.286;10.434;2023-08-21T07:18:56;102075.34;;;29.20;46.37
73558;BME280;61829;53.286;10.434;2023-08-21T07:21:23;102066.63;;;29.58;46.11
73558;BME280;61829;53.286;10.434;2023-08-21T07:23:49;102064.06;;;29.87;44.98
73558;BME280;61829;53.286;10.434;2023-08-21T07:26:15;102058.16;;;29.98;45.05
73558;BME280;61829;53.286;10.434;2023-08-21T07:28:42;102071.88;;;30.34;44.20
73558;BME280;61829;53.286;10.434;2023-08-21T07:31:08;102075.25;;;30.65;44.08
73558;BME280;61829;53.286;10.434;2023-08-21T07:33:34;102075.16;;;30.47;43.24
73558;BME280;61829;53.286;10.434;2023-08-21T07:36:02;102077.63;;;30.48;43.80
73558;BME280;61829;53.286;10.434;2023-08-21T07:38:30;102076.19;;;30.56;44.01
73558;BME280;61829;53.286;10.434;2023-08-21T07:41:04;102077.22;;;30.65;42.81
73558;BME280;61829;53.286;10.434;2023-08-21T07:43:31;102083.13;;;30.58;43.74
73558;BME280;61829;53.286;10.434;2023-08-21T07:45:58;102073.22;;;30.76;42.25
73558;BME280;61829;53.286;10.434;2023-08-21T07:48:27;102073.19;;;30.86;42.51
73558;BME280;61829;53.286;10.434;2023-08-21T07:50:54;102075.97;;;31.16;42.60
73558;BME280;61829;53.286;10.434;2023-08-21T07:53:20;102078.94;;;30.95;42.00
73558;BME280;61829;53.286;10.434;2023-08-21T07:55:46;102077.63;;;30.48;42.20
73558;BME280;61829;53.286;10.434;2023-08-21T07:58:12;102074.72;;;30.29;44.14
73558;BME280;61829;53.286;10.434;2023-08-21T08:00:39;102078.78;;;30.42;43.67
73558;BME280;61829;53.286;10.434;2023-08-21T08:03:05;102077.94;;;30.41;43.70
73558;BME280;61829;53.286;10.434;2023-08-21T08:05:34;102086.28;;;30.47;44.60
73558;BME280;61829;53.286;10.434;2023-08-21T08:08:01;102077.66;;;29.93;43.94
73558;BME280;61829;53.286;10.434;2023-08-21T08:10:27;102078.16;;;30.01;44.80
73558;BME280;61829;53.286;10.434;2023-08-21T08:12:53;102080.78;;;29.76;45.82
73558;BME280;61829;53.286;10.434;2023-08-21T08:15:22;102074.41;;;29.76;46.20
73558;BME280;61829;53.286;10.434;2023-08-21T08:17:47;102074.72;;;29.54;46.09
73558;BME280;61829;53.286;10.434;2023-08-21T08:20:18;102076.09;;;29.57;45.89
73558;BME280;61829;53.286;10.434;2023-08-21T08:22:43;102071.50;;;29.96;45.41
73558;BME280;61829;53.286;10.434;2023-08-21T08:25:10;102067.28;;;30.09;44.24
73558;BME280;61829;53.286;10.434;2023-08-21T08:27:36;102070.72;;;29.86;45.52
73558;BME280;61829;53.286;10.434;2023-08-21T08:30:03;102064.22;;;30.11;44.68
73558;BME280;61829;53.286;10.434;2023-08-21T08:32:29;102071.16;;;30.58;44.14
73558;BME280;61829;53.286;10.434;2023-08-21T08:34:56;102076.00;;;30.81;42.18
73558;BME280;61829;53.286;10.434;2023-08-21T08:37:22;102074.03;;;30.82;44.02
73558;BME280;61829;53.286;10.434;2023-08-21T08:39:48;102080.31;;;30.98;43.58
73558;BME280;61829;53.286;10.434;2023-08-21T08:42:15;102080.88;;;31.00;43.61
73558;BME280;61829;53.286;10.434;2023-08-21T08:44:42;102081.34;;;31.07;43.36
73558;BME280;61829;53.286;10.434;2023-08-21T08:47:10;102078.34;;;30.64;42.60
73558;BME280;61829;53.286;10.434;2023-08-21T08:49:37;102075.63;;;30.54;43.54
73558;BME280;61829;53.286;10.434;2023-08-21T08:52:04;102069.06;;;30.39;44.69
73558;BME280;61829;53.286;10.434;2023-08-21T08:54:31;102066.38;;;30.29;44.48
73558;BME280;61829;53.286;10.434;2023-08-21T08:56:58;102068.66;;;30.56;43.50
73558;BME280;61829;53.286;10.434;2023-08-21T08:59:24;102076.38;;;30.64;42.17
73558;BME280;61829;53.286;10.434;2023-08-21T09:01:50;102076.78;;;30.48;42.90
73558;BME280;61829;53.286;10.434;2023-08-21T09:04:16;102078.19;;;30.45;40.90
73558;BME280;61829;53.286;10.434;2023-08-21T09:06:42;102069.88;;;30.40;42.84
73558;BME280;61829;53.286;10.434;2023-08-21T09:09:08;102076.91;;;30.72;43.77
73558;BME280;61829;53.286;10.434;2023-08-21T09:11:42;102072.16;;;31.06;41.90
73558;BME280;61829;53.286;10.434;2023-08-21T09:14:09;102074.25;;;31.20;42.31
73558;BME280;61829;53.286;10.434;2023-08-21T09:16:36;102075.88;;;31.50;41.10
73558;BME280;61829;53.286;10.434;2023-08-21T09:19:02;102073.34;;;31.77;39.75
73558;BME280;61829;53.286;10.434;2023-08-21T09:21:28;102074.75;;;31.75;40.24
73558;BME280;61829;53.286;10.434;2023-08-21T09:23:58;102070.47;;;31.83;38.93
73558;BME280;61829;53.286;10.434;2023-08-21T09:26:25;102064.50;;;31.70;38.53
73558;BME280;61829;53.286;10.434;2023-08-21T09:28:53;102065.47;;;31.37;39.19
73558;BME280;61829;53.286;10.434;2023-08-21T09:31:22;102063.75;;;31.41;39.22
73558;BME280;61829;53.286;10.434;2023-08-21T09:33:56;102067.75;;;31.53;38.72
73558;BME280;61829;53.286;10.434;2023-08-21T09:36:23;102068.03;;;31.57;39.31
73558;BME280;61829;53.286;10.434;2023-08-21T09:38:53;102064.50;;;31.46;39.10
73558;BME280;61829;53.286;10.434;2023-08-21T09:41:23;102058.13;;;31.46;40.15
73558;BME280;61829;53.286;10.434;2023-08-21T09:43:50;102052.94;;;31.58;38.37
73558;BME280;61829;53.286;10.434;2023-08-21T09:46:17;102057.97;;;31.80;38.01
73558;BME280;61829;53.286;10.434;2023-08-21T09:48:45;102054.09;;;31.76;37.90
73558;BME280;61829;53.286;10.434;2023-08-21T09:51:12;102053.66;;;31.69;37.15
73558;BME280;61829;53.286;10.434;2023-08-21T09:53:38;102050.59;;;31.46;37.98
73558;BME280;61829;53.286;10.434;2023-08-21T09:56:06;102054.03;;;31.38;37.97
73558;BME280;61829;53.286;10.434;2023-08-21T09:58:37;102060.09;;;31.45;38.03
73558;BME280;61829;53.286;10.434;2023-08-21T10:01:07;102056.16;;;31.46;38.20
73558;BME280;61829;53.286;10.434;2023-08-21T10:03:43;102060.56;;;31.23;37.94
73558;BME280;61829;53.286;10.434;2023-08-21T10:06:16;102049.16;;;31.49;38.87
73558;BME280;61829;53.286;10.434;2023-08-21T10:08:46;102052.28;;;31.66;36.46
73558;BME280;61829;53.286;10.434;2023-08-21T10:11:17;102056.63;;;31.53;37.24
73558;BME280;61829;53.286;10.434;2023-08-21T10:13:45;102056.31;;;31.02;36.70
73558;BME280;61829;53.286;10.434;2023-08-21T10:16:12;102057.56;;;30.51;38.23
73558;BME280;61829;53.286;10.434;2023-08-21T10:18:43;102047.06;;;30.77;38.52
73558;BME280;61829;53.286;10.434;2023-08-21T10:21:14;102051.22;;;30.80;39.42
73558;BME280;61829;53.286;10.434;2023-08-21T10:23:41;102048.94;;;31.16;38.27
73558;BME280;61829;53.286;10.434;2023-08-21T10:26:09;102051.47;;;31.42;37.68
73558;BME280;61829;53.286;10.434;2023-08-21T10:31:38;102045.88;;;32.09;36.05
73558;BME280;61829;53.286;10.434;2023-08-21T10:39:17;102047.84;;;32.46;34.94
73558;BME280;61829;53.286;10.434;2023-08-21T10:42:04;102042.22;;;31.89;35.07
73558;BME280;61829;53.286;10.434;2023-08-21T10:50:06;102046.88;;;31.99;34.58
73558;BME280;61829;53.286;10.434;2023-08-21T10:52:36;102049.41;;;31.95;36.18
73558;BME280;61829;53.286;10.434;2023-08-21T10:55:03;102040.25;;;32.14;36.87
73558;BME280;61829;53.286;10.434;2023-08-21T10:57:32;102039.63;;;32.17;35.68
73558;BME280;61829;53.286;10.434;2023-08-21T11:00:06;102043.00;;;32.33;36.07
73558;BME280;61829;53.286;10.434;2023-08-21T11:02:36;102047.25;;;32.49;35.42
73558;BME280;61829;53.286;10.434;2023-08-21T11:05:03;102047.78;;;32.51;34.70
73558;BME280;61829;53.286;10.434;2023-08-21T11:07:30;102048.47;;;32.05;33.58
73558;BME280;61829;53.286;10.434;2023-08-21T11:09:56;102037.81;;;31.64;35.71
73558;BME280;61829;53.286;10.434;2023-08-21T11:12:24;102039.13;;;31.48;37.36
73558;BME280;61829;53.286;10.434;2023-08-21T11:14:50;102037.09;;;31.77;37.07
73558;BME280;61829;53.286;10.434;2023-08-21T11:17:17;102038.28;;;31.71;36.21
73558;BME280;61829;53.286;10.434;2023-08-21T11:19:46;102047.97;;;31.55;36.93
73558;BME280;61829;53.286;10.434;2023-08-21T11:22:14;102039.44;;;31.46;34.77
73558;BME280;61829;53.286;10.434;2023-08-21T11:24:48;102031.72;;;31.62;36.05
73558;BME280;61829;53.286;10.434;2023-08-21T11:27:16;102041.38;;;31.70;36.72
73558;BME280;61829;53.286;10.434;2023-08-21T11:29:47;102041.44;;;32.08;36.28
73558;BME280;61829;53.286;10.434;2023-08-21T11:32:22;102044.69;;;32.34;35.83
73558;BME280;61829;53.286;10.434;2023-08-21T11:37:20;102047.00;;;32.27;33.48
73558;BME280;61829;53.286;10.434;2023-08-21T11:39:56;102048.06;;;32.50;34.26
73558;BME280;61829;53.286;10.434;2023-08-21T11:42:29;102049.66;;;32.56;33.24
73558;BME280;61829;53.286;10.434;2023-08-21T11:44:56;102048.56;;;32.71;33.24
73558;BME280;61829;53.286;10.434;2023-08-21T11:47:23;102048.63;;;32.84;33.51
73558;BME280;61829;53.286;10.434;2023-08-21T11:49:50;102050.19;;;32.39;33.33
73558;BME280;61829;53.286;10.434;2023-08-21T11:52:20;102039.31;;;32.18;33.16
73558;BME280;61829;53.286;10.434;2023-08-21T11:54:49;102046.41;;;31.92;35.89
73558;BME280;61829;53.286;10.434;2023-08-21T11:57:15;102044.00;;;31.61;33.82
73558;BME280;61829;53.286;10.434;2023-08-21T11:59:41;102049.22;;;31.68;34.54
73558;BME280;61829;53.286;10.434;2023-08-21T12:02:18;102054.91;;;31.58;35.41
73558;BME280;61829;53.286;10.434;2023-08-21T12:04:45;102044.13;;;31.51;36.47
73558;BME280;61829;53.286;10.434;2023-08-21T12:07:17;102036.97;;;31.88;36.22
73558;BME280;61829;53.286;10.434;2023-08-21T12:09:46;102039.94;;;31.96;35.48
73558;BME280;61829;53.286;10.434;2023-08-21T12:12:13;102039.16;;;32.29;34.65
73558;BME280;61829;53.286;10.434;2023-08-21T12:14:39;102032.09;;;32.36;33.71
73558;BME280;61829;53.286;10.434;2023-08-21T12:17:05;102044.00;;;32.23;33.58
73558;BME280;61829;53.286;10.434;2023-08-21T12:19:32;102041.38;;;31.94;33.93
73558;BME280;61829;53.286;10.434;2023-08-21T12:21:58;102029.69;;;32.11;33.96
73558;BME280;61829;53.286;10.434;2023-08-21T12:24:24;102037.88;;;32.40;33.63
73558;BME280;61829;53.286;10.434;2023-08-21T12:26:51;102022.38;;;32.67;33.32
73558;BME280;61829;53.286;10.434;2023-08-21T12:29:17;102038.56;;;32.83;33.98
73558;BME280;61829;53.286;10.434;2023-08-21T12:31:43;102036.41;;;32.94;32.66
73558;BME280;61829;53.286;10.434;2023-08-21T12:34:10;102027.88;;;32.72;30.28
73558;BME280;61829;53.286;10.434;2023-08-21T12:36:36;102039.63;;;32.36;32.36
73558;BME280;61829;53.286;10.434;2023-08-21T12:39:03;102026.22;;;32.19;31.56
73558;BME280;61829;53.286;10.434;2023-08-21T12:41:31;102035.78;;;32.32;32.82
73558;BME280;61829;53.286;10.434;2023-08-21T12:44:00;102029.09;;;32.14;31.53
73558;BME280;61829;53.286;10.434;2023-08-21T12:46:26;102037.66;;;31.98;31.82
73558;BME280;61829;53.286;10.434;2023-08-21T12:48:53;102039.81;;;31.83;31.54
73558;BME280;61829;53.286;10.434;2023-08-21T12:51:19;102030.84;;;31.86;32.16
73558;BME280;61829;53.286;10.434;2023-08-21T12:53:47;102035.03;;;31.64;32.44
73558;BME280;61829;53.286;10.434;2023-08-21T12:56:13;102039.72;;;31.69;33.42
73558;BME280;61829;53.286;10.434;2023-08-21T12:58:49;102042.03;;;31.62;31.47